sensor_id;sensor_type;location;lat;lon;timestamp;pressure;altitude;pressure_sealevel;temperature;humidity
19596;BME280;9945;46.010;8.946;2023-02-19T00:01:28;98039.88;;;11.41;75.75
19596;BME280;9945;46.010;8.946;2023-02-19T00:03:57;98036.84;;;11.35;75.99
19596;BME280;9945;46.010;8.946;2023-02-19T00:06:26;98036.47;;;11.10;77.38
19596;BME280;9945;46.010;8.946;2023-02-19T00:08:54;98039.91;;;11.10;77.85
19596;BME280;9945;46.010;8.946;2023-02-19T00:11:25;98038.16;;;11.20;76.92
19596;BME280;9945;46.010;8.946;2023-02-19T00:13:54;98034.31;;;11.24;76.19
19596;BME280;9945;46.010;8.946;2023-02-19T00:16:23;98039.69;;;11.23;76.24
19596;BME280;9945;46.010;8.946;2023-02-19T00:18:51;98040.50;;;11.23;76.12
19596;BME280;9945;46.010;8.946;2023-02-19T00:21:19;98035.09;;;11.15;76.41
19596;BME280;9945;46.010;8.946;2023-02-19T00:23:48;98038.00;;;11.12;76.60
19596;BME280;9945;46.010;8.946;2023-02-19T00:26:16;98032.19;;;11.09;76.53
19596;BME280;9945;46.010;8.946;2023-02-19T00:28:45;98025.81;;;11.02;77.26
19596;BME280;9945;46.010;8.946;2023-02-19T00:31:17;98031.44;;;10.97;77.63
19596;BME280;9945;46.010;8.946;2023-02-19T00:33:44;98031.44;;;10.97;77.91
19596;BME280;9945;46.010;8.946;2023-02-19T00:36:11;98023.31;;;11.00;77.76
19596;BME280;9945;46.010;8.946;2023-02-19T00:38:40;98030.75;;;10.95;77.53
19596;BME280;9945;46.010;8.946;2023-02-19T00:41:08;98021.66;;;10.99;78.21
19596;BME280;9945;46.010;8.946;2023-02-19T00:43:47;98027.47;;;11.03;77.36
19596;BME280;9945;46.010;8.946;2023-02-19T00:46:15;98023.59;;;10.97;77.75
19596;BME280;9945;46.010;8.946;2023-02-19T00:48:43;98027.16;;;10.96;78.00
19596;BME280;9945;46.010;8.946;2023-02-19T00:51:10;98023.00;;;10.93;78.06
19596;BME280;9945;46.010;8.946;2023-02-19T00:53:37;98022.81;;;10.85;78.56
19596;BME280;9945;46.010;8.946;2023-02-19T00:56:05;98017.47;;;10.87;78.19
19596;BME280;9945;46.010;8.946;2023-02-19T00:58:32;98016.75;;;10.85;78.65
19596;BME280;9945;46.010;8.946;2023-02-19T01:01:00;98018.28;;;10.87;78.47
19596;BME280;9945;46.010;8.946;2023-02-19T01:03:27;98012.88;;;10.79;79.03
19596;BME280;9945;46.010;8.946;2023-02-19T01:05:54;98011.09;;;10.80;78.80
19596;BME280;9945;46.010;8.946;2023-02-19T01:08:21;98009.41;;;10.79;78.70
19596;BME280;9945;46.010;8.946;2023-02-19T01:10:48;98010.09;;;10.81;79.09
19596;BME280;9945;46.010;8.946;2023-02-19T01:13:15;98015.22;;;10.82;78.47
19596;BME280;9945;46.010;8.946;2023-02-19T01:15:42;98008.06;;;10.84;78.74
19596;BME280;9945;46.010;8.946;2023-02-19T01:18:11;98008.91;;;10.85;78.38
19596;BME280;9945;46.010;8.946;2023-02-19T01:20:38;98007.94;;;10.86;78.55
19596;BME280;9945;46.010;8.946;2023-02-19T01:23:05;97997.00;;;10.81;79.14
19596;BME280;9945;46.010;8.946;2023-02-19T01:25:32;97986.16;;;10.65;79.54
19596;BME280;9945;46.010;8.946;2023-02-19T01:27:59;97998.31;;;10.66;79.46
19596;BME280;9945;46.010;8.946;2023-02-19T01:30:26;97998.94;;;10.58;79.99
19596;BME280;9945;46.010;8.946;2023-02-19T01:32:53;97995.38;;;10.59;79.60
19596;BME280;9945;46.010;8.946;2023-02-19T01:35:21;98000.50;;;10.60;80.10
19596;BME280;9945;46.010;8.946;2023-02-19T01:37:48;98010.56;;;10.65;80.40
19596;BME280;9945;46.010;8.946;2023-02-19T01:40:15;98001.75;;;10.66;80.05
19596;BME280;9945;46.010;8.946;2023-02-19T01:42:42;98014.97;;;10.65;79.95
19596;BME280;9945;46.010;8.946;2023-02-19T01:45:22;98011.28;;;10.67;80.73
19596;BME280;9945;46.010;8.946;2023-02-19T01:47:55;97999.13;;;10.66;80.13
19596;BME280;9945;46.010;8.946;2023-02-19T01:50:27;98003.47;;;10.56;80.40
19596;BME280;9945;46.010;8.946;2023-02-19T01:52:54;98001.00;;;10.54;80.43
19596;BME280;9945;46.010;8.946;2023-02-19T01:55:22;97998.50;;;10.53;80.33
19596;BME280;9945;46.010;8.946;2023-02-19T01:57:51;97993.41;;;10.51;80.77
19596;BME280;9945;46.010;8.946;2023-02-19T02:00:20;97991.63;;;10.52;80.39
19596;BME280;9945;46.010;8.946;2023-02-19T02:02:51;97985.91;;;10.47;80.54
19596;BME280;9945;46.010;8.946;2023-02-19T02:05:40;97978.47;;;10.42;81.00
19596;BME280;9945;46.010;8.946;2023-02-19T02:08:09;97978.28;;;10.34;81.62
19596;BME280;9945;46.010;8.946;2023-02-19T02:10:55;97974.69;;;10.35;81.99
19596;BME280;9945;46.010;8.946;2023-02-19T02:13:23;97971.06;;;10.27;82.47
19596;BME280;9945;46.010;8.946;2023-02-19T02:15:56;97972.78;;;10.37;81.50
19596;BME280;9945;46.010;8.946;2023-02-19T02:18:31;97963.16;;;10.38;80.73
19596;BME280;9945;46.010;8.946;2023-02-19T02:21:34;97959.94;;;10.34;81.29
19596;BME280;9945;46.010;8.946;2023-02-19T02:24:14;97955.22;;;10.28;81.26
19596;BME280;9945;46.010;8.946;2023-02-19T02:26:56;97948.47;;;10.26;81.80
19596;BME280;9945;46.010;8.946;2023-02-19T02:32:26;97950.56;;;10.32;81.07
19596;BME280;9945;46.010;8.946;2023-02-19T02:34:58;97949.41;;;10.24;81.36
19596;BME280;9945;46.010;8.946;2023-02-19T02:37:29;97957.50;;;10.21;81.25
19596;BME280;9945;46.010;8.946;2023-02-19T02:39:59;97948.97;;;10.19;81.26
19596;BME280;9945;46.010;8.946;2023-02-19T02:42:27;97950.63;;;10.20;79.95
19596;BME280;9945;46.010;8.946;2023-02-19T02:44:55;97942.16;;;10.17;80.10
19596;BME280;9945;46.010;8.946;2023-02-19T02:47:51;97936.22;;;10.15;79.55
19596;BME280;9945;46.010;8.946;2023-02-19T02:50:24;97931.28;;;10.12;79.48
19596;BME280;9945;46.010;8.946;2023-02-19T02:52:55;97930.09;;;10.05;80.56
19596;BME280;9945;46.010;8.946;2023-02-19T02:55:43;97925.00;;;10.03;79.83
19596;BME280;9945;46.010;8.946;2023-02-19T02:58:11;97928.44;;;10.04;80.30
19596;BME280;9945;46.010;8.946;2023-02-19T03:00:42;97931.88;;;10.04;81.00
19596;BME280;9945;46.010;8.946;2023-02-19T03:03:30;97921.59;;;9.92;81.81
19596;BME280;9945;46.010;8.946;2023-02-19T03:06:02;97921.97;;;9.87;81.27
19596;BME280;9945;46.010;8.946;2023-02-19T03:08:34;97915.78;;;9.88;81.79
19596;BME280;9945;46.010;8.946;2023-02-19T03:11:05;97914.94;;;9.87;82.33
19596;BME280;9945;46.010;8.946;2023-02-19T03:13:47;97912.50;;;9.86;82.80
19596;BME280;9945;46.010;8.946;2023-02-19T03:16:36;97920.34;;;9.86;82.48
19596;BME280;9945;46.010;8.946;2023-02-19T03:19:24;97917.84;;;9.84;82.54
19596;BME280;9945;46.010;8.946;2023-02-19T03:21:56;97924.72;;;9.85;82.10
19596;BME280;9945;46.010;8.946;2023-02-19T03:24:27;97921.84;;;9.88;81.23
19596;BME280;9945;46.010;8.946;2023-02-19T03:27:13;97919.34;;;9.87;81.25
19596;BME280;9945;46.010;8.946;2023-02-19T03:29:43;97915.22;;;9.84;81.15
19596;BME280;9945;46.010;8.946;2023-02-19T03:32:15;97913.44;;;9.85;82.50
19596;BME280;9945;46.010;8.946;2023-02-19T03:34:47;97914.00;;;9.88;82.08
19596;BME280;9945;46.010;8.946;2023-02-19T03:37:20;97913.16;;;9.88;81.03
19596;BME280;9945;46.010;8.946;2023-02-19T03:39:51;97917.63;;;9.76;81.20
19596;BME280;9945;46.010;8.946;2023-02-19T03:42:30;97921.44;;;9.72;82.11
19596;BME280;9945;46.010;8.946;2023-02-19T03:45:17;97922.59;;;9.79;82.00
19596;BME280;9945;46.010;8.946;2023-02-19T03:47:51;97925.09;;;9.81;80.63
19596;BME280;9945;46.010;8.946;2023-02-19T03:50:24;97927.00;;;9.79;81.43
19596;BME280;9945;46.010;8.946;2023-02-19T03:53:03;97925.94;;;9.81;80.79
19596;BME280;9945;46.010;8.946;2023-02-19T03:55:38;97923.56;;;9.78;80.18
19596;BME280;9945;46.010;8.946;2023-02-19T03:58:13;97928.22;;;9.75;80.44
19596;BME280;9945;46.010;8.946;2023-02-19T04:00:48;97920.72;;;9.70;80.54
19596;BME280;9945;46.010;8.946;2023-02-19T04:03:23;97917.03;;;9.73;81.05
19596;BME280;9945;46.010;8.946;2023-02-19T04:05:58;97925.72;;;9.73;80.81
19596;BME280;9945;46.010;8.946;2023-02-19T04:08:27;97921.56;;;9.71;80.98
19596;BME280;9945;46.010;8.946;2023-02-19T04:10:57;97921.72;;;9.69;81.25
19596;BME280;9945;46.010;8.946;2023-02-19T04:13:27;97916.50;;;9.58;81.70
19596;BME280;9945;46.010;8.946;2023-02-19T04:15:59;97917.78;;;9.64;81.74
19596;BME280;9945;46.010;8.946;2023-02-19T04:18:30;97915.19;;;9.64;80.58
19596;BME280;9945;46.010;8.946;2023-02-19T04:21:01;97923.13;;;9.62;82.34
19596;BME280;9945;46.010;8.946;2023-02-19T04:23:34;97923.84;;;9.64;81.34
19596;BME280;9945;46.010;8.946;2023-02-19T04:26:03;97925.53;;;9.65;82.40
19596;BME280;9945;46.010;8.946;2023-02-19T04:28:32;97930.75;;;9.65;81.48
19596;BME280;9945;46.010;8.946;2023-02-19T04:31:00;97932.53;;;9.65;82.83
19596;BME280;9945;46.010;8.946;2023-02-19T04:33:26;97931.47;;;9.67;82.16
19596;BME280;9945;46.010;8.946;2023-02-19T04:35:53;97929.78;;;9.66;81.69
19596;BME280;9945;46.010;8.946;2023-02-19T04:38:22;97920.72;;;9.70;82.38
19596;BME280;9945;46.010;8.946;2023-02-19T04:40:48;97917.09;;;9.62;80.95
19596;BME280;9945;46.010;8.946;2023-02-19T04:43:16;97918.75;;;9.63;81.28
19596;BME280;9945;46.010;8.946;2023-02-19T04:45:43;97922.66;;;9.68;81.15
19596;BME280;9945;46.010;8.946;2023-02-19T04:48:09;97911.38;;;9.68;81.44
19596;BME280;9945;46.010;8.946;2023-02-19T04:50:37;97916.22;;;9.72;81.05
19596;BME280;9945;46.010;8.946;2023-02-19T04:53:04;97917.03;;;9.73;82.01
19596;BME280;9945;46.010;8.946;2023-02-19T04:55:35;97919.91;;;9.70;81.20
19596;BME280;9945;46.010;8.946;2023-02-19T04:58:02;97913.50;;;9.63;81.29
19596;BME280;9945;46.010;8.946;2023-02-19T05:00:29;97915.28;;;9.62;81.35
19596;BME280;9945;46.010;8.946;2023-02-19T05:02:58;97909.38;;;9.60;82.21
19596;BME280;9945;46.010;8.946;2023-02-19T05:05:25;97915.28;;;9.62;82.14
19596;BME280;9945;46.010;8.946;2023-02-19T05:07:52;97919.69;;;9.62;82.90
19596;BME280;9945;46.010;8.946;2023-02-19T05:10:19;97918.38;;;9.67;83.61
19596;BME280;9945;46.010;8.946;2023-02-19T05:12:47;97914.34;;;9.63;81.89
19596;BME280;9945;46.010;8.946;2023-02-19T05:15:14;97917.09;;;9.62;83.36
19596;BME280;9945;46.010;8.946;2023-02-19T05:17:41;97902.81;;;9.66;81.89
19596;BME280;9945;46.010;8.946;2023-02-19T05:20:08;97911.38;;;9.68;82.66
19596;BME280;9945;46.010;8.946;2023-02-19T05:22:35;97911.38;;;9.68;83.06
19596;BME280;9945;46.010;8.946;2023-02-19T05:25:03;97911.38;;;9.68;82.40
19596;BME280;9945;46.010;8.946;2023-02-19T05:27:30;97912.56;;;9.64;82.21
19596;BME280;9945;46.010;8.946;2023-02-19T05:29:58;97901.28;;;9.63;83.18
19596;BME280;9945;46.010;8.946;2023-02-19T05:32:25;97897.81;;;9.63;82.86
19596;BME280;9945;46.010;8.946;2023-02-19T05:34:52;97901.16;;;9.65;82.90
19596;BME280;9945;46.010;8.946;2023-02-19T05:37:18;97902.00;;;9.65;81.32
19596;BME280;9945;46.010;8.946;2023-02-19T05:39:47;97902.69;;;9.67;82.13
19596;BME280;9945;46.010;8.946;2023-02-19T05:42:14;97917.56;;;9.67;81.31
19596;BME280;9945;46.010;8.946;2023-02-19T05:44:41;97919.09;;;9.69;82.69
19596;BME280;9945;46.010;8.946;2023-02-19T05:47:09;97910.06;;;9.62;82.67
19596;BME280;9945;46.010;8.946;2023-02-19T05:49:36;97915.06;;;9.65;81.55
19596;BME280;9945;46.010;8.946;2023-02-19T05:52:03;97919.91;;;9.70;81.34
19596;BME280;9945;46.010;8.946;2023-02-19T05:54:30;97912.06;;;9.70;82.67
19596;BME280;9945;46.010;8.946;2023-02-19T05:56:57;97918.00;;;9.72;81.04
19596;BME280;9945;46.010;8.946;2023-02-19T05:59:24;97909.59;;;9.68;81.84
19596;BME280;9945;46.010;8.946;2023-02-19T06:01:52;97920.00;;;9.47;84.07
19596;BME280;9945;46.010;8.946;2023-02-19T06:04:21;97916.88;;;9.54;83.02
19596;BME280;9945;46.010;8.946;2023-02-19T06:06:48;97917.97;;;9.51;83.60
19596;BME280;9945;46.010;8.946;2023-02-19T06:09:15;97918.41;;;9.56;83.10
19596;BME280;9945;46.010;8.946;2023-02-19T06:11:42;97918.41;;;9.56;81.45
19596;BME280;9945;46.010;8.946;2023-02-19T06:14:11;97911.28;;;9.58;83.02
19596;BME280;9945;46.010;8.946;2023-02-19T06:16:37;97907.47;;;9.62;81.23
19596;BME280;9945;46.010;8.946;2023-02-19T06:19:04;97915.06;;;9.65;82.67
19596;BME280;9945;46.010;8.946;2023-02-19T06:21:33;97908.16;;;9.64;81.13
19596;BME280;9945;46.010;8.946;2023-02-19T06:24:03;97910.06;;;9.62;83.01
19596;BME280;9945;46.010;8.946;2023-02-19T06:26:31;97915.56;;;9.59;82.26
19596;BME280;9945;46.010;8.946;2023-02-19T06:28:58;97918.19;;;9.59;82.64
19596;BME280;9945;46.010;8.946;2023-02-19T06:31:25;97924.59;;;9.55;83.16
19596;BME280;9945;46.010;8.946;2023-02-19T06:33:52;97913.63;;;9.61;81.60
19596;BME280;9945;46.010;8.946;2023-02-19T06:36:20;97909.88;;;9.54;82.63
19596;BME280;9945;46.010;8.946;2023-02-19T06:38:49;97913.91;;;9.58;82.42
19596;BME280;9945;46.010;8.946;2023-02-19T06:41:16;97913.47;;;9.42;82.79
19596;BME280;9945;46.010;8.946;2023-02-19T06:43:43;97909.53;;;9.47;81.21
19596;BME280;9945;46.010;8.946;2023-02-19T06:46:11;97904.63;;;9.54;82.12
19596;BME280;9945;46.010;8.946;2023-02-19T06:48:39;97906.56;;;9.52;81.28
19596;BME280;9945;46.010;8.946;2023-02-19T06:51:08;97904.78;;;9.53;81.21
19596;BME280;9945;46.010;8.946;2023-02-19T06:53:36;97898.09;;;9.60;82.35
19596;BME280;9945;46.010;8.946;2023-02-19T06:56:06;97907.22;;;9.65;81.61
19596;BME280;9945;46.010;8.946;2023-02-19T06:58:33;97907.22;;;9.65;82.27
19596;BME280;9945;46.010;8.946;2023-02-19T07:01:00;97885.09;;;9.69;81.65
19596;BME280;9945;46.010;8.946;2023-02-19T07:03:27;97888.94;;;9.54;83.19
19596;BME280;9945;46.010;8.946;2023-02-19T07:05:54;97903.81;;;9.54;84.22
19596;BME280;9945;46.010;8.946;2023-02-19T07:08:20;97908.47;;;9.50;85.08
19596;BME280;9945;46.010;8.946;2023-02-19T07:10:53;97906.28;;;9.66;84.20
19596;BME280;9945;46.010;8.946;2023-02-19T07:13:22;97914.09;;;9.66;83.60
19596;BME280;9945;46.010;8.946;2023-02-19T07:15:49;97911.94;;;9.71;82.86
19596;BME280;9945;46.010;8.946;2023-02-19T07:18:16;97908.69;;;9.58;84.50
19596;BME280;9945;46.010;8.946;2023-02-19T07:20:42;97914.09;;;9.66;83.80
19596;BME280;9945;46.010;8.946;2023-02-19T07:23:09;97916.69;;;9.77;83.91
19596;BME280;9945;46.010;8.946;2023-02-19T07:25:36;97923.38;;;9.91;81.88
19596;BME280;9945;46.010;8.946;2023-02-19T07:28:04;97932.25;;;10.00;81.88
19596;BME280;9945;46.010;8.946;2023-02-19T07:30:32;97927.94;;;10.10;81.18
19596;BME280;9945;46.010;8.946;2023-02-19T07:32:59;97921.69;;;10.01;79.78
19596;BME280;9945;46.010;8.946;2023-02-19T07:35:26;97922.72;;;10.10;79.83
19596;BME280;9945;46.010;8.946;2023-02-19T07:37:53;97913.84;;;10.22;78.59
19596;BME280;9945;46.010;8.946;2023-02-19T07:40:20;97915.97;;;9.96;79.24
19596;BME280;9945;46.010;8.946;2023-02-19T07:42:47;97933.53;;;10.05;77.95
19596;BME280;9945;46.010;8.946;2023-02-19T07:45:14;97929.44;;;10.23;76.80
19596;BME280;9945;46.010;8.946;2023-02-19T07:47:42;97926.88;;;10.33;76.53
19596;BME280;9945;46.010;8.946;2023-02-19T07:50:09;97933.72;;;10.45;76.09
19596;BME280;9945;46.010;8.946;2023-02-19T07:52:36;97928.38;;;10.56;76.90
19596;BME280;9945;46.010;8.946;2023-02-19T07:55:03;97936.69;;;10.61;75.91
19596;BME280;9945;46.010;8.946;2023-02-19T07:57:30;97937.56;;;10.72;75.13
19596;BME280;9945;46.010;8.946;2023-02-19T07:59:57;97940.56;;;10.67;75.23
19596;BME280;9945;46.010;8.946;2023-02-19T08:02:24;97937.84;;;10.48;74.85
19596;BME280;9945;46.010;8.946;2023-02-19T08:05:10;97937.38;;;10.63;74.40
19596;BME280;9945;46.010;8.946;2023-02-19T08:07:37;97932.50;;;10.80;73.83
19596;BME280;9945;46.010;8.946;2023-02-19T08:10:05;97925.66;;;10.88;73.13
19596;BME280;9945;46.010;8.946;2023-02-19T08:12:56;97926.84;;;10.84;73.34
19596;BME280;9945;46.010;8.946;2023-02-19T08:15:40;97930.69;;;10.50;75.04
19596;BME280;9945;46.010;8.946;2023-02-19T08:18:08;97922.88;;;10.59;74.49
19596;BME280;9945;46.010;8.946;2023-02-19T08:20:36;97926.59;;;10.87;73.39
19596;BME280;9945;46.010;8.946;2023-02-19T08:23:03;97921.41;;;11.07;73.32
19596;BME280;9945;46.010;8.946;2023-02-19T08:25:30;97918.56;;;11.19;73.65
19596;BME280;9945;46.010;8.946;2023-02-19T08:27:57;97906.84;;;11.33;73.00
19596;BME280;9945;46.010;8.946;2023-02-19T08:30:25;97907.16;;;11.40;72.42
19596;BME280;9945;46.010;8.946;2023-02-19T08:32:52;97909.53;;;11.62;72.19
19596;BME280;9945;46.010;8.946;2023-02-19T08:35:19;97921.41;;;11.75;71.44
19596;BME280;9945;46.010;8.946;2023-02-19T08:37:47;97907.88;;;11.61;71.34
19596;BME280;9945;46.010;8.946;2023-02-19T08:40:14;97906.91;;;11.62;71.52
19596;BME280;9945;46.010;8.946;2023-02-19T08:42:41;97902.47;;;11.43;73.24
19596;BME280;9945;46.010;8.946;2023-02-19T08:45:08;97908.75;;;11.90;70.68
19596;BME280;9945;46.010;8.946;2023-02-19T08:47:35;97904.97;;;12.12;70.97
19596;BME280;9945;46.010;8.946;2023-02-19T08:50:03;97895.16;;;12.24;70.60
19596;BME280;9945;46.010;8.946;2023-02-19T08:52:31;97900.91;;;12.37;68.95
19596;BME280;9945;46.010;8.946;2023-02-19T08:54:59;97909.03;;;12.53;67.66
19596;BME280;9945;46.010;8.946;2023-02-19T08:57:26;97915.59;;;12.76;68.32
19596;BME280;9945;46.010;8.946;2023-02-19T08:59:54;97918.28;;;12.94;67.35
19596;BME280;9945;46.010;8.946;2023-02-19T09:02:21;97918.25;;;13.04;65.17
19596;BME280;9945;46.010;8.946;2023-02-19T09:04:49;97913.50;;;13.17;65.11
19596;BME280;9945;46.010;8.946;2023-02-19T09:07:16;97910.84;;;13.27;65.50
19596;BME280;9945;46.010;8.946;2023-02-19T09:09:43;97912.50;;;13.45;63.21
19596;BME280;9945;46.010;8.946;2023-02-19T09:12:12;97900.44;;;13.52;63.64
19596;BME280;9945;46.010;8.946;2023-02-19T09:14:39;97896.16;;;13.69;62.49
19596;BME280;9945;46.010;8.946;2023-02-19T09:17:06;97902.59;;;13.75;64.47
19596;BME280;9945;46.010;8.946;2023-02-19T09:19:34;97897.19;;;13.76;63.52
19596;BME280;9945;46.010;8.946;2023-02-19T09:22:02;97906.03;;;14.11;63.42
19596;BME280;9945;46.010;8.946;2023-02-19T09:24:29;97906.19;;;14.09;63.38
19596;BME280;9945;46.010;8.946;2023-02-19T09:26:56;97903.94;;;13.96;63.18
19596;BME280;9945;46.010;8.946;2023-02-19T09:29:26;97894.59;;;14.20;62.96
19596;BME280;9945;46.010;8.946;2023-02-19T09:31:55;97907.63;;;14.47;62.11
19596;BME280;9945;46.010;8.946;2023-02-19T09:34:22;97909.03;;;14.59;61.55
19596;BME280;9945;46.010;8.946;2023-02-19T09:36:49;97912.94;;;14.55;61.74
19596;BME280;9945;46.010;8.946;2023-02-19T09:39:17;97914.47;;;14.58;61.33
19596;BME280;9945;46.010;8.946;2023-02-19T09:41:46;97911.09;;;14.48;61.95
19596;BME280;9945;46.010;8.946;2023-02-19T09:44:20;97909.97;;;15.18;59.55
19596;BME280;9945;46.010;8.946;2023-02-19T09:46:51;97903.63;;;15.45;59.46
19596;BME280;9945;46.010;8.946;2023-02-19T09:49:22;97902.41;;;15.73;57.79
19596;BME280;9945;46.010;8.946;2023-02-19T09:51:53;97900.06;;;16.43;54.75
19596;BME280;9945;46.010;8.946;2023-02-19T09:54:24;97900.38;;;16.56;53.38
19596;BME280;9945;46.010;8.946;2023-02-19T09:56:54;97893.09;;;16.75;53.83
19596;BME280;9945;46.010;8.946;2023-02-19T09:59:24;97893.75;;;17.47;51.83
19596;BME280;9945;46.010;8.946;2023-02-19T10:01:57;97905.50;;;17.52;50.59
19596;BME280;9945;46.010;8.946;2023-02-19T10:04:25;97901.44;;;18.33;49.41
19596;BME280;9945;46.010;8.946;2023-02-19T10:06:53;97891.56;;;18.94;46.66
19596;BME280;9945;46.010;8.946;2023-02-19T10:09:24;97883.75;;;19.72;45.03
19596;BME280;9945;46.010;8.946;2023-02-19T10:11:54;97888.28;;;19.78;44.65
19596;BME280;9945;46.010;8.946;2023-02-19T10:14:28;97891.44;;;19.67;44.76
19596;BME280;9945;46.010;8.946;2023-02-19T10:16:58;97885.63;;;21.11;40.95
19596;BME280;9945;46.010;8.946;2023-02-19T10:19:26;97882.00;;;21.93;39.31
19596;BME280;9945;46.010;8.946;2023-02-19T10:21:53;97889.41;;;21.97;38.99
19596;BME280;9945;46.010;8.946;2023-02-19T10:24:24;97886.16;;;22.74;37.81
19596;BME280;9945;46.010;8.946;2023-02-19T10:26:52;97888.78;;;22.81;37.84
19596;BME280;9945;46.010;8.946;2023-02-19T10:29:20;97885.34;;;23.38;36.37
19596;BME280;9945;46.010;8.946;2023-02-19T10:34:40;97873.25;;;24.05;34.49
19596;BME280;9945;46.010;8.946;2023-02-19T10:37:11;97864.81;;;24.01;34.05
19596;BME280;9945;46.010;8.946;2023-02-19T10:39:41;97876.34;;;24.02;35.36
19596;BME280;9945;46.010;8.946;2023-02-19T10:42:17;97877.34;;;24.39;34.39
19596;BME280;9945;46.010;8.946;2023-02-19T10:44:46;97873.84;;;23.37;34.92
19596;BME280;9945;46.010;8.946;2023-02-19T10:47:17;97876.03;;;24.17;34.36
19596;BME280;9945;46.010;8.946;2023-02-19T10:49:47;97877.72;;;22.84;35.75
19596;BME280;9945;46.010;8.946;2023-02-19T10:52:19;97873.94;;;23.62;35.90
19596;BME280;9945;46.010;8.946;2023-02-19T10:54:54;97870.38;;;24.06;34.22
19596;BME280;9945;46.010;8.946;2023-02-19T10:57:27;97878.03;;;23.20;35.67
19596;BME280;9945;46.010;8.946;2023-02-19T11:00:01;97868.44;;;23.89;34.84
19596;BME280;9945;46.010;8.946;2023-02-19T11:02:30;97870.25;;;24.20;34.13
19596;BME280;9945;46.010;8.946;2023-02-19T11:05:19;97866.91;;;21.45;38.05
19596;BME280;9945;46.010;8.946;2023-02-19T11:07:48;97866.41;;;23.39;35.64
19596;BME280;9945;46.010;8.946;2023-02-19T11:10:25;97863.03;;;24.70;34.33
19596;BME280;9945;46.010;8.946;2023-02-19T11:12:55;97867.06;;;25.52;32.22
19596;BME280;9945;46.010;8.946;2023-02-19T11:15:26;97863.88;;;25.43;31.90
19596;BME280;9945;46.010;8.946;2023-02-19T11:17:58;97857.84;;;24.93;32.44
19596;BME280;9945;46.010;8.946;2023-02-19T11:20:27;97842.81;;;23.99;34.28
19596;BME280;9945;46.010;8.946;2023-02-19T11:22:58;97857.50;;;23.59;35.08
19596;BME280;9945;46.010;8.946;2023-02-19T11:25:27;97851.25;;;23.27;35.41
19596;BME280;9945;46.010;8.946;2023-02-19T11:27:55;97844.91;;;23.15;35.94
19596;BME280;9945;46.010;8.946;2023-02-19T11:30:33;97836.78;;;22.96;35.64
19596;BME280;9945;46.010;8.946;2023-02-19T11:33:18;97838.28;;;22.66;36.68
19596;BME280;9945;46.010;8.946;2023-02-19T11:35:48;97825.53;;;22.88;36.27
19596;BME280;9945;46.010;8.946;2023-02-19T11:38:17;97824.19;;;22.00;37.43
19596;BME280;9945;46.010;8.946;2023-02-19T11:40:50;97812.00;;;21.51;37.86
19596;BME280;9945;46.010;8.946;2023-02-19T11:43:39;97812.03;;;22.50;36.51
19596;BME280;9945;46.010;8.946;2023-02-19T11:46:16;97817.91;;;22.72;37.07
19596;BME280;9945;46.010;8.946;2023-02-19T11:48:56;97811.81;;;22.58;36.38
19596;BME280;9945;46.010;8.946;2023-02-19T11:54:35;97797.34;;;22.92;36.02
19596;BME280;9945;46.010;8.946;2023-02-19T11:57:15;97789.22;;;23.18;34.90
19596;BME280;9945;46.010;8.946;2023-02-19T11:59:47;97791.63;;;23.26;34.77
19596;BME280;9945;46.010;8.946;2023-02-19T12:02:36;97777.34;;;23.46;34.47
19596;BME280;9945;46.010;8.946;2023-02-19T12:05:27;97767.59;;;24.07;33.83
19596;BME280;9945;46.010;8.946;2023-02-19T12:08:20;97767.00;;;24.85;32.70
19596;BME280;9945;46.010;8.946;2023-02-19T12:11:07;97764.13;;;25.35;31.94
19596;BME280;9945;46.010;8.946;2023-02-19T12:13:53;97756.72;;;25.18;32.25
19596;BME280;9945;46.010;8.946;2023-02-19T12:16:25;97755.22;;;25.22;32.20
19596;BME280;9945;46.010;8.946;2023-02-19T12:19:24;97763.00;;;26.07;30.77
19596;BME280;9945;46.010;8.946;2023-02-19T12:22:10;97756.00;;;25.83;29.81
19596;BME280;9945;46.010;8.946;2023-02-19T12:28:07;97740.81;;;26.47;29.41
19596;BME280;9945;46.010;8.946;2023-02-19T12:30:54;97730.59;;;25.55;30.08
19596;BME280;9945;46.010;8.946;2023-02-19T12:34:02;97723.66;;;25.89;30.42
19596;BME280;9945;46.010;8.946;2023-02-19T12:36:38;97724.16;;;26.45;28.96
19596;BME280;9945;46.010;8.946;2023-02-19T12:39:16;97718.59;;;26.63;29.05
19596;BME280;9945;46.010;8.946;2023-02-19T12:41:56;97726.31;;;26.71;28.77
19596;BME280;9945;46.010;8.946;2023-02-19T12:44:35;97716.91;;;26.85;28.81
19596;BME280;9945;46.010;8.946;2023-02-19T12:47:04;97715.19;;;27.36;28.50
19596;BME280;9945;46.010;8.946;2023-02-19T12:49:35;97707.63;;;27.66;28.03
19596;BME280;9945;46.010;8.946;2023-02-19T12:52:08;97709.03;;;27.69;27.99
19596;BME280;9945;46.010;8.946;2023-02-19T12:54:39;97706.81;;;27.82;27.77
19596;BME280;9945;46.010;8.946;2023-02-19T12:57:11;97691.22;;;28.01;27.90
19596;BME280;9945;46.010;8.946;2023-02-19T12:59:47;97689.97;;;28.26;27.02
19596;BME280;9945;46.010;8.946;2023-02-19T13:02:18;97688.41;;;28.30;26.58
19596;BME280;9945;46.010;8.946;2023-02-19T13:04:52;97690.16;;;28.19;27.51
19596;BME280;9945;46.010;8.946;2023-02-19T13:07:25;97692.16;;;28.29;27.41
19596;BME280;9945;46.010;8.946;2023-02-19T13:09:59;97685.25;;;28.16;27.38
19596;BME280;9945;46.010;8.946;2023-02-19T13:12:32;97684.28;;;28.22;27.01
19596;BME280;9945;46.010;8.946;2023-02-19T13:15:05;97677.56;;;28.08;27.20
19596;BME280;9945;46.010;8.946;2023-02-19T13:17:43;97679.84;;;28.16;27.11
19596;BME280;9945;46.010;8.946;2023-02-19T13:20:17;97670.00;;;28.21;27.05
19596;BME280;9945;46.010;8.946;2023-02-19T13:22:54;97673.28;;;28.07;27.24
19596;BME280;9945;46.010;8.946;2023-02-19T13:25:52;97663.03;;;28.09;26.78
19596;BME280;9945;46.010;8.946;2023-02-19T13:28:38;97656.84;;;28.08;27.28
19596;BME280;9945;46.010;8.946;2023-02-19T13:31:23;97664.19;;;28.13;27.18
19596;BME280;9945;46.010;8.946;2023-02-19T13:34:02;97648.25;;;28.28;27.19
19596;BME280;9945;46.010;8.946;2023-02-19T13:36:35;97655.53;;;28.11;26.92
19596;BME280;9945;46.010;8.946;2023-02-19T13:39:04;97650.81;;;28.18;26.79
19596;BME280;9945;46.010;8.946;2023-02-19T13:41:36;97653.38;;;28.30;26.77
19596;BME280;9945;46.010;8.946;2023-02-19T13:44:06;97655.09;;;28.57;26.79
19596;BME280;9945;46.010;8.946;2023-02-19T13:46:41;97646.59;;;31.43;23.86
19596;BME280;9945;46.010;8.946;2023-02-19T13:49:41;97654.25;;;35.16;19.53